Time;durP1;ratioP1;P1;durP2;ratioP2;P2;SDS_P1;SDS_P2;PMS_P1;PMS_P2;Temp;Humidity;BMP_temperature;BMP_pressure;BME280_temperature;BME280_humidity;BME280_pressure;Samples;Min_cycle;Max_cycle;Signal;HPM_P1;HPM_P2
2022/04/16 00:01:17;;;;;;;26.33;14.30;;;9.70;99.90;;;;;;5094144;23;20157;-90
2022/04/16 00:03:21;;;;;;;19.83;13.50;;;9.60;99.90;;;;;;5070064;23;20158;-90
2022/04/16 00:05:25;;;;;;;22.20;13.93;;;9.50;99.90;;;;;;5069466;23;20201;-91
2022/04/16 00:07:25;;;;;;;23.00;13.93;;;9.40;99.90;;;;;;5069817;23;20208;-92
2022/04/16 00:09:26;;;;;;;21.33;13.90;;;9.40;99.90;;;;;;5069407;23;20533;-91
2022/04/16 00:11:27;;;;;;;23.80;15.30;;;9.30;99.90;;;;;;5069522;23;20193;-90
2022/04/16 00:13:29;;;;;;;23.43;14.37;;;9.20;99.90;;;;;;5069792;23;20224;-90
2022/04/16 00:15:31;;;;;;;20.30;13.20;;;9.20;99.90;;;;;;5069490;23;20278;-91
2022/04/16 00:17:32;;;;;;;26.37;14.37;;;9.20;99.90;;;;;;5093656;23;20180;-90
2022/04/16 00:19:34;;;;;;;26.03;14.97;;;9.20;99.90;;;;;;5094136;23;20153;-91
2022/04/16 00:21:38;;;;;;;23.30;13.50;;;9.30;99.90;;;;;;5093974;23;20171;-92
2022/04/16 00:23:41;;;;;;;22.80;14.37;;;9.30;99.90;;;;;;5069435;23;20150;-90
2022/04/16 00:25:41;;;;;;;22.47;14.30;;;9.20;99.90;;;;;;5069281;23;20651;-91
2022/04/16 00:27:42;;;;;;;24.17;15.33;;;9.20;99.90;;;;;;5069428;23;20169;-91
2022/04/16 00:29:43;;;;;;;23.40;15.53;;;9.20;99.90;;;;;;5069438;23;20249;-90
2022/04/16 00:31:45;;;;;;;23.83;15.33;;;9.10;99.90;;;;;;5069425;23;20197;-91
2022/04/16 00:33:47;;;;;;;25.77;16.57;;;9.00;99.90;;;;;;5094255;23;20250;-91
2022/04/16 00:35:47;;;;;;;21.43;14.53;;;9.00;99.90;;;;;;5093745;23;20157;-90
2022/04/16 00:37:49;;;;;;;27.20;16.10;;;8.90;99.90;;;;;;5069263;23;20169;-91
2022/04/16 00:39:50;;;;;;;27.43;17.07;;;8.90;99.90;;;;;;5069302;23;20574;-92
2022/04/16 00:41:51;;;;;;;26.43;15.70;;;8.90;99.90;;;;;;5093660;23;20161;-91
2022/04/16 00:43:52;;;;;;;27.03;16.30;;;8.80;99.90;;;;;;5069146;23;20150;-91
2022/04/16 00:45:54;;;;;;;25.23;16.37;;;8.80;99.90;;;;;;5118231;23;20598;-90
2022/04/16 00:47:56;;;;;;;24.83;16.47;;;8.70;99.90;;;;;;5093342;23;20165;-90
2022/04/16 00:49:57;;;;;;;29.73;17.03;;;8.70;99.90;;;;;;5069613;23;20181;-90
2022/04/16 00:51:59;;;;;;;26.30;16.93;;;8.70;99.90;;;;;;5093483;23;20326;-90
2022/04/16 00:54:00;;;;;;;28.30;17.17;;;8.60;99.90;;;;;;5069472;23;20149;-90
2022/04/16 00:56:06;;;;;;;36.73;18.03;;;8.60;99.90;;;;;;5094127;23;20239;-91
2022/04/16 00:58:07;;;;;;;30.97;17.50;;;8.60;99.90;;;;;;5069509;23;20174;-92
2022/04/16 01:00:11;;;;;;;27.60;17.30;;;8.60;99.90;;;;;;5069432;23;20245;-89
2022/04/16 01:02:12;;;;;;;25.67;17.03;;;8.60;99.90;;;;;;5093860;23;20192;-89
2022/04/16 01:04:13;;;;;;;28.30;17.53;;;8.60;99.90;;;;;;5069072;23;20518;-90
2022/04/16 01:06:16;;;;;;;27.37;18.57;;;8.50;99.90;;;;;;5093838;23;20160;-90
2022/04/16 01:08:19;;;;;;;30.87;17.97;;;8.50;99.90;;;;;;5093855;23;20710;-91
2022/04/16 01:10:21;;;;;;;29.27;17.87;;;8.50;99.90;;;;;;5093449;23;20153;-91
2022/04/16 01:12:21;;;;;;;29.27;18.60;;;8.50;99.90;;;;;;5093895;23;20181;-89
2022/04/16 01:14:22;;;;;;;32.10;18.67;;;8.50;99.90;;;;;;5068884;23;20671;-90
2022/04/16 01:16:23;;;;;;;28.83;18.23;;;8.40;99.90;;;;;;5069265;23;20219;-91
2022/04/16 01:18:23;;;;;;;30.50;19.10;;;8.40;99.90;;;;;;5093544;23;20258;-91
2022/04/16 01:20:24;;;;;;;34.13;18.70;;;8.40;99.90;;;;;;5069201;23;20146;-90
2022/04/16 01:22:29;;;;;;;29.33;17.97;;;8.40;99.90;;;;;;5069140;23;20288;-91
2022/04/16 01:24:30;;;;;;;31.83;19.53;;;8.30;99.90;;;;;;5093369;23;20244;-90
2022/04/16 01:26:31;;;;;;;31.20;18.33;;;8.30;99.90;;;;;;5069301;23;20145;-90
2022/04/16 01:28:32;;;;;;;29.03;19.07;;;8.30;99.90;;;;;;5068939;23;20268;-91
2022/04/16 01:30:33;;;;;;;33.00;19.73;;;8.30;99.90;;;;;;5069748;23;20208;-91
2022/04/16 01:32:34;;;;;;;32.83;19.03;;;8.30;99.90;;;;;;5069153;23;20165;-91
2022/04/16 01:34:34;;;;;;;34.33;20.27;;;8.20;99.90;;;;;;5093405;23;20153;-90
2022/04/16 01:36:35;;;;;;;34.90;19.73;;;8.30;99.90;;;;;;5068961;23;20374;-91
2022/04/16 01:38:36;;;;;;;34.63;18.80;;;8.30;99.90;;;;;;5093417;23;20208;-91
2022/04/16 01:40:38;;;;;;;33.13;19.50;;;8.20;99.90;;;;;;5093325;23;20153;-90
2022/04/16 01:42:39;;;;;;;32.57;19.53;;;8.20;99.90;;;;;;5069226;23;20154;-91
2022/04/16 01:44:42;;;;;;;33.37;20.17;;;8.20;99.90;;;;;;5069083;23;20184;-91
2022/04/16 01:46:43;;;;;;;34.20;19.53;;;8.20;99.90;;;;;;5093728;23;20164;-91
2022/04/16 01:48:44;;;;;;;31.97;20.50;;;8.20;99.90;;;;;;5093568;23;20588;-90
2022/04/16 01:50:49;;;;;;;35.10;19.37;;;8.20;99.90;;;;;;5093620;23;20180;-91
2022/04/16 01:52:49;;;;;;;31.47;19.63;;;8.20;99.90;;;;;;5093667;23;20168;-90
2022/04/16 01:54:51;;;;;;;35.30;20.83;;;8.20;99.90;;;;;;5093257;23;20149;-90
2022/04/16 01:56:51;;;;;;;36.23;19.83;;;8.20;99.90;;;;;;5093446;23;20176;-91
2022/04/16 01:58:52;;;;;;;33.37;20.53;;;8.20;99.90;;;;;;5093268;23;20149;-91
2022/04/16 02:00:54;;;;;;;34.73;20.47;;;8.20;99.90;;;;;;5093470;23;20149;-91
2022/04/16 02:02:54;;;;;;;34.87;20.53;;;8.10;99.90;;;;;;5069385;23;20152;-92
2022/04/16 02:04:55;;;;;;;33.80;20.33;;;8.10;99.90;;;;;;5068837;23;20162;-90
2022/04/16 02:06:56;;;;;;;33.53;19.67;;;8.10;99.90;;;;;;5117554;23;20152;-92
2022/04/16 02:08:56;;;;;;;35.33;20.87;;;8.20;99.90;;;;;;5068749;23;20213;-91
2022/04/16 02:10:57;;;;;;;33.07;19.10;;;8.20;99.90;;;;;;5093149;23;20196;-91
2022/04/16 02:13:00;;;;;;;33.73;19.53;;;8.20;99.90;;;;;;5093157;23;20145;-91
2022/04/16 02:15:01;;;;;;;35.63;20.17;;;8.30;99.90;;;;;;5069075;23;20575;-90
2022/04/16 02:17:02;;;;;;;34.43;20.27;;;8.20;99.90;;;;;;5094616;23;20164;-91
2022/04/16 02:19:03;;;;;;;34.97;19.50;;;8.20;99.90;;;;;;5095073;23;20207;-91
2022/04/16 02:21:04;;;;;;;35.93;20.47;;;8.20;99.90;;;;;;5070373;23;20179;-90
2022/04/16 02:23:04;;;;;;;37.87;20.80;;;8.20;99.90;;;;;;5094957;23;20157;-90
2022/04/16 02:25:08;;;;;;;35.27;21.50;;;8.10;99.90;;;;;;5070778;23;20181;-90
2022/04/16 02:27:08;;;;;;;38.33;20.60;;;8.10;99.90;;;;;;5094944;23;20203;-92
2022/04/16 02:29:09;;;;;;;35.17;20.07;;;8.00;99.90;;;;;;5051237;23;20166;-91
2022/04/16 02:31:10;;;;;;;36.77;20.80;;;8.00;99.90;;;;;;5094917;23;20187;-90
2022/04/16 02:33:12;;;;;;;32.83;20.00;;;8.00;99.90;;;;;;5045929;23;20154;-91
2022/04/16 02:35:14;;;;;;;36.67;21.03;;;8.00;99.90;;;;;;5045769;23;20519;-90
2022/04/16 02:37:15;;;;;;;33.87;20.60;;;8.00;99.90;;;;;;5094819;23;20245;-90
2022/04/16 02:39:15;;;;;;;32.83;20.10;;;8.00;99.90;;;;;;5046047;23;20586;-91
2022/04/16 02:41:19;;;;;;;36.20;21.47;;;8.10;99.90;;;;;;5046278;23;20165;-90
2022/04/16 02:43:19;;;;;;;36.30;21.10;;;8.10;99.90;;;;;;5070249;23;20150;-89
2022/04/16 02:47:39;;;;;;;37.00;21.00;;;8.10;99.90;;;;;;5070141;23;20632;-91
2022/04/16 02:49:40;;;;;;;35.90;20.67;;;8.00;99.90;;;;;;5046538;23;20157;-93
2022/04/16 02:51:43;;;;;;;38.17;22.20;;;8.00;99.90;;;;;;5046257;23;20301;-91
2022/04/16 02:53:43;;;;;;;35.97;21.10;;;8.00;99.90;;;;;;5046334;23;20202;-91
2022/04/16 02:55:46;;;;;;;36.67;21.67;;;8.10;99.90;;;;;;5046116;23;20154;-91
2022/04/16 02:57:49;;;;;;;35.43;20.40;;;8.00;99.90;;;;;;5070004;23;20248;-90
2022/04/16 02:59:52;;;;;;;35.83;20.83;;;8.00;99.90;;;;;;5069832;23;20188;-91
2022/04/16 03:01:54;;;;;;;35.73;21.30;;;8.00;99.90;;;;;;5070188;23;20149;-91
2022/04/16 03:03:54;;;;;;;39.87;21.10;;;8.00;99.90;;;;;;5070205;23;20484;-91
2022/04/16 03:05:55;;;;;;;37.43;21.30;;;8.00;99.90;;;;;;5045852;23;20162;-93
2022/04/16 03:07:57;;;;;;;33.90;20.00;;;8.00;99.90;;;;;;5070072;23;20174;-91
2022/04/16 03:09:57;;;;;;;35.50;21.00;;;8.00;99.90;;;;;;5045600;23;20212;-89
2022/04/16 08:50:24;;;;;;;;;;;;;;;;;;;;;
2022/04/16 08:53:16;;;;;;;;;;;;;;;;;;;;;
2022/04/16 09:23:25;;;;;;;7.45;5.80;;;19.00;99.90;;;;;;5144812;22;20214;-94
2022/04/16 09:25:29;;;;;;;9.60;6.28;;;18.90;99.90;;;;;;5093737;23;20539;-92
2022/04/16 09:27:41;;;;;;;8.30;5.97;;;18.40;99.90;;;;;;5093254;23;20180;-92
2022/04/16 09:29:43;;;;;;;7.55;5.90;;;17.50;99.90;;;;;;5093644;23;20161;-93
2022/04/16 09:31:49;;;;;;;8.20;4.90;;;18.10;99.90;;;;;;5093456;23;20196;-93
2022/04/16 09:33:50;;;;;;;8.57;4.90;;;19.10;99.90;;;;;;5118057;23;20155;-92
2022/04/16 09:35:57;;;;;;;6.97;4.68;;;19.10;99.90;;;;;;5118579;23;20144;-93
2022/04/16 09:37:59;;;;;;;7.35;5.05;;;18.90;99.90;;;;;;5093674;23;20176;-95
2022/04/16 09:40:12;;;;;;;9.98;5.50;;;19.00;99.90;;;;;;5093728;23;20145;-93
2022/04/16 09:42:24;;;;;;;7.57;4.95;;;18.30;99.90;;;;;;5093737;23;20153;-93
2022/04/16 09:44:25;;;;;;;7.00;4.10;;;18.00;99.90;;;;;;5093388;23;20183;-95
2022/04/16 09:46:31;;;;;;;6.38;4.18;;;18.00;99.90;;;;;;5118151;23;20148;-94
2022/04/16 09:48:32;;;;;;;6.57;4.63;;;18.10;99.90;;;;;;5093389;23;20173;-95
2022/04/16 09:50:33;;;;;;;8.05;4.18;;;18.40;99.90;;;;;;5118240;23;20206;-96
2022/04/16 09:52:36;;;;;;;9.80;4.63;;;18.10;99.90;;;;;;5093515;23;20196;-92
2022/04/16 09:54:38;;;;;;;7.32;4.20;;;17.90;99.90;;;;;;5118215;23;20685;-95
2022/04/16 09:56:40;;;;;;;10.73;4.82;;;18.40;99.90;;;;;;5093333;23;20152;-92
2022/04/16 09:58:48;;;;;;;4.75;3.25;;;18.20;99.90;;;;;;5093314;23;20149;-94
2022/04/16 10:00:50;;;;;;;6.43;4.13;;;18.30;99.90;;;;;;5093276;23;20255;-92
2022/04/16 10:02:52;;;;;;;5.95;2.88;;;18.10;99.90;;;;;;5093372;23;20212;-93
2022/04/16 10:04:54;;;;;;;5.93;3.20;;;17.50;99.90;;;;;;5093099;23;20145;-94
2022/04/16 10:06:55;;;;;;;4.22;2.55;;;17.10;99.90;;;;;;5117664;23;20153;-93
2022/04/16 10:08:57;;;;;;;5.38;3.05;;;17.50;99.90;;;;;;5093035;23;20227;-95
2022/04/16 10:11:03;;;;;;;6.22;3.00;;;17.30;99.90;;;;;;5117872;23;20188;-93
2022/04/16 10:13:08;;;;;;;5.63;2.50;;;17.30;99.90;;;;;;5093290;23;20667;-94
2022/04/16 10:15:18;;;;;;;3.72;2.47;;;17.40;99.90;;;;;;5117888;23;20153;-93
2022/04/16 10:17:42;;;;;;;4.75;2.97;;;17.10;99.90;;;;;;5093359;23;20228;-94
2022/04/16 10:19:48;;;;;;;5.05;3.00;;;16.90;99.90;;;;;;5117970;23;20194;-94
2022/04/16 10:21:54;;;;;;;6.38;3.30;;;16.80;99.90;;;;;;5093481;23;20528;-95
2022/04/16 10:24:00;;;;;;;7.05;4.25;;;16.80;99.90;;;;;;5093435;23;20169;-95
2022/04/16 10:26:09;;;;;;;5.55;3.88;;;16.90;99.90;;;;;;5093403;23;20602;-93
2022/04/16 10:28:16;;;;;;;8.07;4.00;;;16.90;99.90;;;;;;5093135;23;20184;-95
2022/04/16 10:30:16;;;;;;;5.60;3.60;;;17.00;99.90;;;;;;5093151;23;20569;-94
2022/04/16 10:32:18;;;;;;;7.25;4.18;;;17.00;99.90;;;;;;5117893;23;20184;-94
2022/04/16 10:34:29;;;;;;;5.20;3.60;;;16.70;99.90;;;;;;5093109;23;20150;-92
2022/04/16 10:36:32;;;;;;;5.78;4.28;;;16.40;99.90;;;;;;5093259;23;20170;-96
2022/04/16 10:38:34;;;;;;;6.50;3.97;;;16.70;99.90;;;;;;5094762;23;20169;-93
2022/04/16 10:40:41;;;;;;;7.85;4.40;;;16.50;99.90;;;;;;5094718;23;20508;-96
2022/04/16 10:47:09;;;;;;;8.20;4.63;;;16.80;99.90;;;;;;5140960;23;20144;-96
2022/04/16 10:50:14;;;;;;;7.35;4.50;;;16.90;99.90;;;;;;5059419;23;20158;-96
2022/04/16 10:53:07;;;;;;;6.82;4.05;;;16.80;99.90;;;;;;5100128;23;20254;-95
2022/04/16 10:56:20;;;;;;;5.95;3.20;;;16.30;99.90;;;;;;5081043;23;20183;-96
2022/04/16 11:20:56;;;;;;;4.60;3.28;;;17.20;99.90;;;;;;5155695;22;20202;-94
2022/04/16 11:23:50;;;;;;;7.38;4.32;;;17.30;99.90;;;;;;5154871;23;20211;-96
2022/04/16 11:35:37;;;;;;;5.55;3.83;;;17.20;99.90;;;;;;5157327;22;20254;-95
2022/04/16 11:38:48;;;;;;;8.50;4.75;;;17.20;99.90;;;;;;5109523;23;20196;-94
2022/04/16 11:42:06;;;;;;;6.88;4.45;;;17.00;99.90;;;;;;5041259;23;20163;-95
2022/04/16 11:50:05;;;;;;;5.72;4.35;;;17.60;99.90;;;;;;5155980;22;20209;-95
2022/04/16 11:52:56;;;;;;;6.55;4.20;;;17.70;99.90;;;;;;4994007;23;20342;-95
2022/04/16 12:03:15;;;;;;;6.72;3.92;;;17.70;99.90;;;;;;5025352;23;20158;-95
2022/04/16 12:05:56;;;;;;;5.82;4.05;;;17.60;99.90;;;;;;4969245;23;20153;-95
2022/04/16 12:08:42;;;;;;;7.70;4.32;;;17.40;99.90;;;;;;4943563;24;20177;-96
2022/04/16 12:14:16;;;;;;;8.07;4.80;;;17.50;99.90;;;;;;5131391;22;20211;-95
2022/04/16 12:24:38;;;;;;;6.43;3.97;;;17.70;99.90;;;;;;5146219;22;20210;-96
2022/04/16 12:31:46;;;;;;;8.82;4.22;;;18.00;99.90;;;;;;5146268;22;20225;-94
2022/04/16 12:34:09;;;;;;;6.82;4.80;;;18.00;99.90;;;;;;5135123;23;20170;-94
2022/04/16 12:36:58;;;;;;;9.30;4.78;;;18.10;99.90;;;;;;5110049;23;20184;-94
2022/04/16 13:04:48;;;;;;;6.03;4.18;;;18.20;99.90;;;;;;5154468;22;20210;-94
2022/04/16 13:09:52;;;;;;;7.75;5.00;;;18.20;99.90;;;;;;4991156;23;20167;-93
2022/04/16 13:12:53;;;;;;;;;;;;;;;;;;;;;
2022/04/16 13:27:15;;;;;;;9.30;5.82;;;18.40;99.90;;;;;;5157067;22;20210;-95
2022/04/16 13:53:28;;;;;;;;;;;;;;;;;;;;;
2022/04/16 14:24:11;;;;;;;8.35;5.43;;;18.60;99.90;;;;;;5146154;22;20187;-96
2022/04/16 14:29:05;;;;;;;8.73;5.70;;;18.60;99.90;;;;;;5135615;23;20203;-94
2022/04/16 14:31:29;;;;;;;7.45;5.18;;;18.60;99.90;;;;;;5090804;23;20173;-96
2022/04/16 14:47:31;;;;;;;6.25;4.55;;;19.00;99.90;;;;;;5159688;22;20230;-95
2022/04/16 16:41:54;;;;;;;4.43;2.97;;;18.10;99.90;;;;;;5153916;22;20229;-95
2022/04/16 16:45:03;;;;;;;5.82;3.22;;;18.10;99.90;;;;;;5038262;23;20163;-94
2022/04/16 19:08:09;;;;;;;9.13;5.13;;;16.80;99.90;;;;;;5149600;23;20503;-94
2022/04/16 19:10:58;;;;;;;;;;;;;;;;;;;;;
2022/04/16 19:13:49;;;;;;;;;;;;;;;;;;;;;
2022/04/16 19:20:25;;;;;;;;;;;;;;;;;;;;;
2022/04/16 19:22:40;;;;;;;9.55;4.65;;;16.30;99.90;;;;;;5098458;23;20166;-93
2022/04/16 19:24:45;;;;;;;6.88;4.45;;;16.20;99.90;;;;;;5094306;23;20149;-94
2022/04/16 19:26:47;;;;;;;7.53;4.45;;;16.20;99.90;;;;;;5094013;23;20148;-95
2022/04/16 19:28:48;;;;;;;7.60;4.28;;;16.00;99.90;;;;;;5094478;23;20153;-95
2022/04/16 19:30:51;;;;;;;9.30;4.68;;;16.00;99.90;;;;;;5094956;23;20476;-96
2022/04/16 19:32:51;;;;;;;9.10;4.60;;;15.90;99.90;;;;;;5094560;23;20295;-94
2022/04/16 19:34:52;;;;;;;9.13;4.82;;;16.00;99.90;;;;;;5118890;23;20148;-95
2022/04/16 19:36:53;;;;;;;6.82;4.43;;;15.90;99.90;;;;;;5095111;23;20159;-95
2022/04/16 19:38:54;;;;;;;8.48;4.32;;;15.90;99.90;;;;;;5094267;23;20513;-95
2022/04/16 19:41:02;;;;;;;10.50;4.60;;;15.90;99.90;;;;;;5094230;23;20164;-94
2022/04/16 19:43:03;;;;;;;10.52;4.82;;;15.90;99.90;;;;;;5094369;23;20174;-96
2022/04/16 19:45:05;;;;;;;10.95;5.00;;;16.00;99.90;;;;;;5119066;23;20481;-96
2022/04/16 19:47:06;;;;;;;9.25;4.35;;;16.00;99.90;;;;;;5094191;23;20168;-94
2022/04/16 19:49:07;;;;;;;7.05;3.92;;;15.90;99.90;;;;;;5094303;23;20153;-95
2022/04/16 19:51:07;;;;;;;7.13;4.30;;;15.90;99.90;;;;;;5118514;23;20211;-94
2022/04/16 19:53:09;;;;;;;11.07;4.63;;;15.80;99.90;;;;;;5118808;23;20214;-95
2022/04/16 19:55:10;;;;;;;10.07;4.05;;;15.80;99.90;;;;;;5094372;23;20159;-93
2022/04/16 19:57:10;;;;;;;9.80;4.93;;;15.70;99.90;;;;;;5118918;23;20211;-95
2022/04/16 19:59:12;;;;;;;11.18;5.28;;;15.90;99.90;;;;;;5094600;23;20160;-95
2022/04/16 20:01:14;;;;;;;13.95;5.30;;;15.90;99.90;;;;;;5093958;23;20203;-94
2022/04/16 20:03:15;;;;;;;7.97;5.40;;;15.90;99.90;;;;;;5094346;23;20172;-95
2022/04/16 20:05:16;;;;;;;9.30;4.97;;;15.90;99.90;;;;;;5093974;23;20162;-95
2022/04/16 20:07:17;;;;;;;8.63;4.47;;;16.00;99.90;;;;;;5094939;23;20169;-95
2022/04/16 20:11:37;;;;;;;8.40;4.30;;;15.90;99.90;;;;;;5118533;23;20191;-94
2022/04/16 20:13:38;;;;;;;8.90;4.97;;;15.80;99.90;;;;;;5118552;23;20223;-96
2022/04/16 20:15:40;;;;;;;11.55;5.47;;;15.60;99.90;;;;;;5094015;23;20153;-95
2022/04/16 20:17:41;;;;;;;10.05;6.10;;;15.60;99.90;;;;;;5093456;23;20191;-94
2022/04/16 20:19:41;;;;;;;17.38;7.15;;;15.50;99.90;;;;;;5093917;23;20149;-95
2022/04/16 20:21:42;;;;;;;9.85;5.95;;;15.40;99.90;;;;;;5093937;23;20155;-94
2022/04/16 20:23:44;;;;;;;10.57;6.03;;;15.50;99.90;;;;;;5094033;23;20504;-94
2022/04/16 20:25:45;;;;;;;9.85;5.97;;;15.50;99.90;;;;;;5093997;23;20236;-95
2022/04/16 20:27:47;;;;;;;8.77;5.55;;;15.50;99.90;;;;;;5093727;23;20223;-94
2022/04/16 20:29:51;;;;;;;8.13;5.18;;;15.40;99.90;;;;;;5095800;23;20189;-94
2022/04/16 20:31:52;;;;;;;12.82;5.50;;;15.30;99.90;;;;;;5093825;23;20192;-95
2022/04/16 20:33:53;;;;;;;12.32;5.57;;;15.20;99.90;;;;;;5093916;23;20149;-94
2022/04/16 20:35:54;;;;;;;10.80;5.63;;;15.00;99.90;;;;;;5093958;23;20161;-95
2022/04/16 20:37:55;;;;;;;9.02;5.35;;;14.90;99.90;;;;;;5094039;23;20179;-95
2022/04/16 20:46:54;;;;;;;7.90;4.70;;;14.80;99.90;;;;;;5118817;23;20151;-94
2022/04/16 20:48:55;;;;;;;7.38;4.45;;;14.60;99.90;;;;;;5093904;23;20163;-96
2022/04/16 20:53:16;;;;;;;6.95;4.03;;;14.30;99.90;;;;;;5119495;23;20168;-96
2022/04/16 20:55:17;;;;;;;6.78;4.28;;;14.20;99.90;;;;;;5119595;23;20184;-95
2022/04/16 20:57:18;;;;;;;6.47;4.38;;;14.00;99.90;;;;;;5094925;23;20184;-94
2022/04/16 20:59:19;;;;;;;6.35;4.18;;;14.00;99.90;;;;;;5094230;23;20153;-95
2022/04/16 21:01:20;;;;;;;9.20;4.82;;;14.00;99.90;;;;;;5093836;23;20160;-94
2022/04/16 21:03:21;;;;;;;8.82;4.20;;;13.70;99.90;;;;;;5093632;23;20615;-95
2022/04/16 21:05:22;;;;;;;6.68;3.85;;;13.50;99.90;;;;;;5118602;23;20152;-94
2022/04/16 21:07:22;;;;;;;8.90;4.60;;;13.40;99.90;;;;;;5095057;23;20203;-95
2022/04/16 21:09:23;;;;;;;8.35;3.60;;;13.40;99.90;;;;;;5094077;23;20149;-94
2022/04/16 21:11:24;;;;;;;8.80;4.43;;;13.40;99.90;;;;;;5093619;23;20189;-95
2022/04/16 21:13:30;;;;;;;8.73;4.28;;;13.40;99.90;;;;;;5095097;23;20219;-95
2022/04/16 21:15:33;;;;;;;6.97;4.07;;;13.30;99.90;;;;;;5094577;23;20149;-95
2022/04/16 21:17:37;;;;;;;15.73;4.13;;;13.20;99.90;;;;;;5119119;23;20215;-94
2022/04/16 21:19:40;;;;;;;7.82;4.07;;;13.20;99.90;;;;;;5094408;23;20213;-95
2022/04/16 21:21:44;;;;;;;11.77;4.72;;;13.10;99.90;;;;;;5095355;23;20215;-94
2022/04/16 21:23:45;;;;;;;7.75;4.05;;;12.90;99.90;;;;;;5119573;23;20151;-94
2022/04/16 21:25:46;;;;;;;7.37;4.20;;;12.90;99.90;;;;;;5095670;23;20180;-95
2022/04/16 21:27:48;;;;;;;6.13;3.93;;;12.80;99.90;;;;;;5094007;23;20164;-94
2022/04/16 21:29:53;;;;;;;8.13;4.65;;;12.70;99.90;;;;;;5093535;23;20159;-93
2022/04/16 21:32:00;;;;;;;8.90;4.07;;;12.80;99.90;;;;;;5093791;23;20184;-95
2022/04/16 21:34:02;;;;;;;7.50;4.57;;;12.80;99.90;;;;;;5143685;23;20238;-95
2022/04/16 21:36:03;;;;;;;7.73;4.47;;;12.80;99.90;;;;;;5094319;23;20646;-95
2022/04/16 21:38:10;;;;;;;11.35;4.53;;;12.80;99.90;;;;;;5094878;23;20192;-95
2022/04/16 21:40:12;;;;;;;11.68;4.53;;;12.80;99.90;;;;;;5093856;23;20619;-94
2022/04/16 21:42:12;;;;;;;7.70;4.65;;;12.80;99.90;;;;;;5094066;23;20185;-94
2022/04/16 21:44:16;;;;;;;11.88;5.20;;;12.90;99.90;;;;;;5094574;23;20180;-96
2022/04/16 21:46:22;;;;;;;13.27;6.43;;;13.00;99.90;;;;;;5094505;23;20174;-95
2022/04/16 21:48:23;;;;;;;9.55;5.40;;;13.10;99.90;;;;;;5118238;23;20176;-94
2022/04/16 21:50:26;;;;;;;8.55;4.28;;;13.20;99.90;;;;;;5118335;23;20188;-95
2022/04/16 21:52:45;;;;;;;8.00;4.60;;;13.10;99.90;;;;;;5094344;23;20195;-94
2022/04/16 21:54:53;;;;;;;10.80;4.32;;;12.90;99.90;;;;;;5094177;23;20135;-95
2022/04/16 21:57:13;;;;;;;11.60;6.10;;;13.00;99.90;;;;;;5120399;23;20164;-95
2022/04/16 21:59:16;;;;;;;9.43;4.57;;;13.10;99.90;;;;;;5093621;23;20151;-95
2022/04/16 22:01:36;;;;;;;9.95;4.65;;;13.10;99.90;;;;;;5093743;23;20154;-95
2022/04/16 22:03:37;;;;;;;9.48;3.90;;;13.10;99.90;;;;;;5093479;23;20168;-95
2022/04/16 22:05:38;;;;;;;8.02;4.80;;;13.10;99.90;;;;;;5094286;23;20208;-94
2022/04/16 22:07:42;;;;;;;8.82;4.00;;;13.10;99.90;;;;;;5094459;23;20175;-95
2022/04/16 22:09:42;;;;;;;6.72;3.88;;;13.10;99.90;;;;;;5120822;23;20231;-95
2022/04/16 22:11:47;;;;;;;6.82;4.22;;;13.00;99.90;;;;;;5094651;23;20195;-96
2022/04/16 22:13:48;;;;;;;8.27;4.80;;;13.00;99.90;;;;;;5093129;23;20507;-95
2022/04/16 22:15:49;;;;;;;7.22;3.95;;;13.10;99.90;;;;;;5093511;23;20149;-96
2022/04/16 22:17:52;;;;;;;6.28;3.90;;;13.30;99.90;;;;;;5093555;23;20173;-96
2022/04/16 22:19:58;;;;;;;6.07;4.18;;;13.30;99.90;;;;;;5093803;23;20185;-95
2022/04/16 22:22:01;;;;;;;7.50;4.50;;;13.10;99.90;;;;;;5118666;23;20155;-95
2022/04/16 22:24:03;;;;;;;6.57;4.10;;;13.00;99.90;;;;;;5093259;23;20228;-95
2022/04/16 22:26:04;;;;;;;6.05;4.03;;;12.90;99.90;;;;;;5093456;23;20161;-96
2022/04/16 22:28:05;;;;;;;6.38;3.67;;;12.70;99.90;;;;;;5094246;23;20180;-96
2022/04/16 22:30:09;;;;;;;8.40;3.92;;;12.70;99.90;;;;;;5117988;23;20164;-95
2022/04/16 22:32:10;;;;;;;10.32;3.67;;;12.60;99.90;;;;;;5093925;23;20192;-95
2022/04/16 22:34:14;;;;;;;8.82;3.63;;;12.50;99.90;;;;;;5096603;23;20626;-94
2022/04/16 22:36:17;;;;;;;7.75;3.75;;;12.50;99.90;;;;;;5119885;23;20152;-95
2022/04/16 22:40:59;;;;;;;6.00;3.67;;;12.60;99.90;;;;;;5119707;23;20243;-96
2022/04/16 22:43:14;;;;;;;5.38;3.40;;;12.70;99.90;;;;;;5143655;23;20183;-95
2022/04/16 22:45:14;;;;;;;5.47;3.25;;;12.60;99.90;;;;;;5120148;23;20238;-94
2022/04/16 22:47:15;;;;;;;9.73;3.72;;;12.40;99.90;;;;;;5094509;23;20612;-95
2022/04/16 22:49:16;;;;;;;8.63;3.97;;;12.40;99.90;;;;;;5094779;23;20158;-96
2022/04/16 22:51:18;;;;;;;6.13;3.15;;;12.50;99.90;;;;;;5095558;23;20184;-95
2022/04/16 22:53:20;;;;;;;6.78;3.83;;;12.40;99.90;;;;;;5095327;23;20153;-95
2022/04/16 22:55:20;;;;;;;7.13;3.50;;;12.40;99.90;;;;;;5096011;23;20248;-95
2022/04/16 22:57:21;;;;;;;5.00;3.53;;;12.40;99.90;;;;;;5094433;23;20169;-94
2022/04/16 22:59:22;;;;;;;5.63;3.63;;;12.30;99.90;;;;;;5094372;23;20176;-96
2022/04/16 23:01:24;;;;;;;7.45;3.53;;;12.20;99.90;;;;;;5095026;23;20630;-95
2022/04/16 23:03:25;;;;;;;6.45;3.47;;;12.10;99.90;;;;;;5094431;23;20679;-94
2022/04/16 23:05:26;;;;;;;5.20;3.13;;;11.90;99.90;;;;;;5095661;23;20156;-95
2022/04/16 23:07:27;;;;;;;7.10;3.47;;;11.80;99.90;;;;;;5120052;23;20180;-94
2022/04/16 23:09:28;;;;;;;8.73;3.58;;;11.70;99.90;;;;;;5094595;23;20164;-95
2022/04/16 23:11:28;;;;;;;8.45;3.45;;;11.70;99.90;;;;;;5094357;23;20196;-96
2022/04/16 23:13:30;;;;;;;6.55;3.65;;;11.80;99.90;;;;;;5120380;23;20151;-95
2022/04/16 23:17:50;;;;;;;7.63;3.75;;;11.70;99.90;;;;;;5119268;23;20179;-95
2022/04/16 23:19:50;;;;;;;6.03;3.20;;;11.70;99.90;;;;;;5094468;23;20643;-95
2022/04/16 23:21:51;;;;;;;6.57;3.30;;;11.60;99.90;;;;;;5094527;23;20149;-96
2022/04/16 23:23:52;;;;;;;6.13;3.25;;;11.60;99.90;;;;;;5094244;23;20646;-95
2022/04/16 23:25:54;;;;;;;5.05;3.30;;;11.50;99.90;;;;;;5094460;23;20465;-96
2022/04/16 23:27:55;;;;;;;5.07;3.53;;;11.50;99.90;;;;;;5094144;23;20175;-95
2022/04/16 23:29:55;;;;;;;6.38;3.60;;;11.40;99.90;;;;;;5094807;23;20145;-95
2022/04/16 23:31:56;;;;;;;5.97;3.58;;;11.30;99.90;;;;;;5094043;23;20216;-95
2022/04/16 23:33:57;;;;;;;10.07;4.15;;;11.40;99.90;;;;;;5118733;23;20333;-94
2022/04/16 23:35:58;;;;;;;5.65;3.40;;;11.50;99.90;;;;;;5094130;23;20222;-94
2022/04/16 23:37:59;;;;;;;5.93;3.38;;;11.40;99.90;;;;;;5119082;23;20179;-94
2022/04/16 23:39:59;;;;;;;7.15;3.63;;;11.50;99.90;;;;;;5094537;23;20211;-95
2022/04/16 23:42:00;;;;;;;6.68;3.78;;;11.90;99.90;;;;;;5094350;23;20488;-95
2022/04/16 23:48:39;;;;;;;8.40;3.80;;;12.40;99.90;;;;;;5118758;23;20642;-95
2022/04/16 23:50:40;;;;;;;5.38;3.42;;;12.40;99.90;;;;;;5094244;23;20209;-95
2022/04/16 23:52:41;;;;;;;8.70;3.73;;;12.50;99.90;;;;;;5095024;23;20192;-94
2022/04/16 23:54:41;;;;;;;8.33;3.17;;;12.60;99.90;;;;;;5119305;23;20211;-94
2022/04/16 23:56:42;;;;;;;6.82;3.50;;;12.60;99.90;;;;;;5094879;23;20177;-95
2022/04/16 23:58:43;;;;;;;6.50;3.60;;;12.10;99.90;;;;;;5095363;23;20149;-94
